Time;durP1;ratioP1;P1;durP2;ratioP2;P2;SDS_P1;SDS_P2;PMS_P1;PMS_P2;Temp;Humidity;BMP_temperature;BMP_pressure;BME280_temperature;BME280_humidity;BME280_pressure;Samples;Min_cycle;Max_cycle;Signal;HPM_P1;HPM_P2
2024/03/06 00:01:22;;;;;;;3.93;2.40;;;6.70;88.10;;;8.55;58.89;97648.16;5014000;28;20050;-45
2024/03/06 00:03:50;;;;;;;3.93;2.10;;;6.80;87.80;;;8.51;59.14;97651.22;5028401;28;20040;-45
2024/03/06 00:06:17;;;;;;;3.43;2.33;;;6.80;87.60;;;8.50;59.07;97657.53;5029817;28;20488;-44
2024/03/06 00:08:45;;;;;;;5.17;2.83;;;6.80;88.10;;;8.54;59.07;97649.13;5009491;28;20533;-44
2024/03/06 00:11:12;;;;;;;4.40;2.50;;;6.80;87.50;;;8.54;59.15;97651.75;5010956;28;20039;-44
2024/03/06 00:13:40;;;;;;;5.23;2.10;;;6.90;87.40;;;8.52;59.21;97656.38;5024562;28;20422;-44
2024/03/06 00:16:08;;;;;;;5.93;3.60;;;6.90;87.00;;;8.51;59.28;97648.56;5029632;28;20047;-45
2024/03/06 00:18:36;;;;;;;4.23;2.80;;;6.90;87.60;;;8.48;59.26;97652.38;5017173;28;20044;-44
2024/03/06 00:21:04;;;;;;;3.20;2.53;;;6.80;87.90;;;8.52;59.08;97658.22;5011064;28;20058;-46
2024/03/06 00:23:32;;;;;;;4.10;2.63;;;6.80;87.70;;;8.53;59.06;97652.75;5017401;28;20498;-45
2024/03/06 00:26:01;;;;;;;5.93;2.50;;;6.90;87.50;;;8.58;59.08;97654.97;5029430;28;20052;-43
2024/03/06 00:28:30;;;;;;;3.17;2.40;;;7.00;87.20;;;8.62;59.14;97661.63;5023614;28;20052;-46
2024/03/06 00:30:57;;;;;;;3.33;2.40;;;7.00;86.80;;;8.62;59.14;97656.34;5012009;28;20502;-45
2024/03/06 00:33:25;;;;;;;4.57;2.70;;;7.00;87.10;;;8.61;59.05;97662.63;5013117;28;20031;-44
2024/03/06 00:35:53;;;;;;;4.77;2.30;;;6.90;87.10;;;8.53;59.22;97662.53;5029005;28;20044;-45
2024/03/06 00:38:20;;;;;;;4.53;2.43;;;6.80;87.30;;;8.56;59.17;97659.59;5029141;28;20063;-46
2024/03/06 00:40:48;;;;;;;3.60;1.90;;;6.80;88.50;;;8.54;59.25;97665.03;5011152;28;20043;-45
2024/03/06 00:43:16;;;;;;;2.90;2.20;;;6.80;87.90;;;8.56;59.20;97657.75;4969663;28;20424;-43
2024/03/06 00:45:43;;;;;;;3.80;2.33;;;6.80;89.00;;;8.52;59.54;97661.69;5024185;28;20117;-44
2024/03/06 00:48:11;;;;;;;3.90;2.00;;;6.80;88.40;;;8.54;59.42;97665.03;5028585;28;20490;-43
2024/03/06 00:50:39;;;;;;;3.63;2.10;;;6.90;88.20;;;8.51;59.54;97659.19;5018316;28;20044;-45
2024/03/06 00:53:07;;;;;;;4.67;2.13;;;6.90;87.80;;;8.39;59.82;97651.38;5011666;28;20418;-45
2024/03/06 00:55:35;;;;;;;3.50;2.23;;;6.80;88.80;;;8.30;60.14;97649.63;5017292;28;20058;-46
2024/03/06 00:58:02;;;;;;;4.20;2.10;;;6.70;89.30;;;8.27;60.20;97648.09;5029110;28;20037;-44
2024/03/06 01:00:30;;;;;;;3.77;2.20;;;6.70;89.70;;;8.31;60.13;97645.16;5024963;28;20419;-45
2024/03/06 01:02:58;;;;;;;3.37;2.23;;;6.70;90.20;;;8.32;60.20;97646.81;5011354;28;20047;-45
2024/03/06 01:05:25;;;;;;;4.70;1.80;;;6.70;90.20;;;8.32;60.26;97649.47;5011584;28;20105;-44
2024/03/06 01:07:54;;;;;;;2.67;2.13;;;6.70;89.40;;;8.31;60.45;97658.41;5003939;28;20429;-44
2024/03/06 01:10:22;;;;;;;3.87;2.10;;;6.60;90.20;;;8.35;60.33;97652.66;5011149;28;20490;-43
2024/03/06 01:12:50;;;;;;;4.07;2.33;;;6.70;90.20;;;8.42;60.54;97656.44;5026396;28;20048;-44
2024/03/06 01:15:18;;;;;;;6.47;2.77;;;6.70;90.20;;;8.45;59.98;97658.81;5030476;28;20040;-44
2024/03/06 01:17:46;;;;;;;4.07;2.40;;;6.70;90.10;;;8.47;59.99;97661.28;5019089;28;20489;-43
2024/03/06 01:20:14;;;;;;;4.77;2.53;;;6.70;89.80;;;8.51;59.67;97668.00;5014824;28;20046;-44
2024/03/06 01:22:42;;;;;;;5.10;2.73;;;6.80;89.80;;;8.54;59.99;97664.22;5025593;28;20051;-45
2024/03/06 01:25:10;;;;;;;10.53;4.43;;;6.80;89.80;;;8.53;60.00;97662.53;5032563;28;20041;-43
2024/03/06 01:27:38;;;;;;;4.73;2.50;;;6.70;90.10;;;8.50;59.86;97661.00;5023495;28;20048;-44
2024/03/06 01:30:06;;;;;;;3.20;1.90;;;6.70;90.10;;;8.56;59.75;97662.25;5014851;28;20050;-44
2024/03/06 01:32:34;;;;;;;2.97;2.20;;;6.80;90.20;;;8.61;59.92;97665.28;5019106;28;20051;-43
2024/03/06 01:35:01;;;;;;;3.53;2.37;;;6.90;89.30;;;8.58;59.72;97670.88;5032471;28;20542;-43
2024/03/06 01:37:29;;;;;;;6.30;2.20;;;6.80;89.10;;;8.56;59.72;97662.25;5031668;28;20043;-45
2024/03/06 01:39:57;;;;;;;4.27;2.23;;;6.80;89.50;;;8.51;60.04;97667.16;5014120;28;20057;-44
2024/03/06 01:42:24;;;;;;;4.17;2.30;;;6.70;89.90;;;8.52;59.85;97668.81;5014999;28;20541;-43
2024/03/06 01:44:52;;;;;;;4.17;3.07;;;6.70;89.90;;;8.50;59.81;97665.50;5031080;28;20047;-43
2024/03/06 01:47:20;;;;;;;6.17;2.60;;;6.70;90.10;;;8.49;59.98;97669.94;5032045;28;20044;-43
2024/03/06 01:49:48;;;;;;;2.93;2.30;;;6.70;90.30;;;8.53;59.81;97665.19;5018681;28;20040;-45
2024/03/06 01:52:18;;;;;;;4.07;2.60;;;6.80;90.00;;;8.52;59.95;97669.66;5013159;28;20043;-44
2024/03/06 01:54:49;;;;;;;5.97;2.47;;;6.80;89.00;;;8.51;59.87;97661.84;5025686;28;20058;-44
2024/03/06 01:57:19;;;;;;;3.77;2.77;;;6.80;89.10;;;8.54;59.93;97667.69;5032050;28;20040;-44
2024/03/06 01:59:48;;;;;;;3.97;2.77;;;6.80;89.20;;;8.50;59.89;97660.19;5020472;28;20047;-45
2024/03/06 02:02:16;;;;;;;6.60;3.23;;;6.70;89.00;;;8.42;59.83;97667.06;5013165;28;20460;-44
2024/03/06 02:04:43;;;;;;;4.47;2.77;;;6.70;89.30;;;8.28;60.08;97657.72;5020739;28;20054;-45
2024/03/06 02:07:13;;;;;;;5.83;2.93;;;6.60;90.20;;;8.34;60.36;97666.09;5030554;28;20045;-44
2024/03/06 02:09:41;;;;;;;3.93;2.97;;;6.60;90.20;;;8.38;60.23;97670.94;5023876;28;20052;-44
2024/03/06 02:12:08;;;;;;;4.33;3.03;;;6.60;90.20;;;8.41;59.94;97680.44;5014090;28;20497;-44
2024/03/06 02:14:38;;;;;;;3.67;2.77;;;6.70;90.80;;;8.43;60.12;97675.84;5017059;28;20039;-45
2024/03/06 02:17:06;;;;;;;6.50;3.00;;;6.70;89.90;;;8.43;60.14;97670.53;5030389;28;20518;-44
2024/03/06 02:19:42;;;;;;;6.53;3.23;;;6.70;89.70;;;8.37;60.16;97682.53;5030162;28;20395;-43
2024/03/06 02:22:11;;;;;;;5.20;3.63;;;6.60;89.40;;;8.34;60.23;97668.75;5029311;28;20035;-43
2024/03/06 02:24:46;;;;;;;5.10;2.77;;;6.50;90.70;;;8.30;60.19;97678.81;5017218;28;20418;-44
2024/03/06 02:27:13;;;;;;;4.17;2.40;;;6.50;91.30;;;8.25;60.51;97678.41;5029211;28;20428;-43
2024/03/06 02:29:41;;;;;;;6.40;3.17;;;6.50;90.90;;;8.25;60.53;97678.41;5025379;28;20051;-43
2024/03/06 02:32:09;;;;;;;6.10;3.77;;;6.50;90.90;;;8.28;60.43;97675.47;5012771;28;20062;-44
2024/03/06 02:34:36;;;;;;;8.87;4.13;;;6.60;90.40;;;8.30;60.35;97678.81;5015836;28;20046;-43
2024/03/06 02:37:04;;;;;;;7.10;3.53;;;6.60;90.70;;;8.28;60.53;97673.66;5031582;28;20271;-43
2024/03/06 02:39:32;;;;;;;5.13;3.60;;;6.60;91.00;;;8.35;60.41;97678.38;5030871;28;20045;-44
2024/03/06 02:41:59;;;;;;;4.43;3.33;;;6.60;91.10;;;8.37;60.45;97684.34;5031349;28;20037;-44
2024/03/06 02:44:27;;;;;;;4.73;3.27;;;6.60;90.90;;;8.39;60.35;97682.38;5031132;28;20047;-44
2024/03/06 02:46:55;;;;;;;9.17;3.90;;;6.70;90.90;;;8.43;60.22;97683.78;5015809;28;20412;-45
2024/03/06 02:49:22;;;;;;;4.63;3.43;;;6.70;90.60;;;8.44;60.05;97681.00;5013668;28;20047;-44
2024/03/06 02:51:51;;;;;;;5.60;3.53;;;6.70;90.10;;;8.40;60.27;97687.56;5023357;28;20050;-44
2024/03/06 02:54:19;;;;;;;8.03;3.40;;;6.60;90.00;;;8.36;60.26;97688.00;5031032;28;20036;-44
2024/03/06 02:56:46;;;;;;;5.87;2.57;;;6.50;90.70;;;8.30;60.39;97681.47;5023668;28;20389;-44
2024/03/06 02:59:15;;;;;;;5.47;2.70;;;6.50;90.90;;;8.29;60.50;97685.09;5013531;28;20039;-44
2024/03/06 03:01:42;;;;;;;6.90;3.10;;;6.50;91.20;;;8.29;60.61;97688.56;5017691;28;20047;-45
2024/03/06 03:04:11;;;;;;;4.63;3.20;;;6.50;90.50;;;8.21;60.54;97680.50;5030889;28;20051;-44
2024/03/06 03:06:38;;;;;;;4.07;2.70;;;6.50;92.10;;;8.25;60.58;97686.34;5029718;28;20041;-44
2024/03/06 03:09:06;;;;;;;4.33;2.53;;;6.50;91.10;;;8.25;60.64;97687.19;5012823;28;20047;-44
2024/03/06 03:11:35;;;;;;;38.00;3.80;;;6.50;91.60;;;8.21;60.54;97684.97;5011993;28;20043;-44
2024/03/06 03:14:03;;;;;;;6.20;4.00;;;6.50;91.60;;;8.20;60.64;97683.28;5030206;28;20047;-44
2024/03/06 03:16:32;;;;;;;5.80;2.80;;;6.40;91.90;;;8.25;60.67;97684.53;5030773;28;20522;-44
2024/03/06 03:18:59;;;;;;;4.97;2.73;;;6.50;91.50;;;8.16;60.81;97687.22;5014912;28;20042;-44
2024/03/06 03:21:27;;;;;;;6.90;3.43;;;6.40;91.30;;;8.18;60.87;97687.91;5013189;28;20390;-45
2024/03/06 03:23:55;;;;;;;3.77;2.73;;;6.40;91.40;;;8.21;60.74;97687.63;5024462;28;20390;-44
2024/03/06 03:26:23;;;;;;;6.10;3.30;;;6.40;92.10;;;8.23;60.88;97690.97;5030313;28;20048;-44
2024/03/06 03:28:51;;;;;;;6.80;3.37;;;6.50;92.00;;;8.27;60.79;97695.00;5021508;28;20063;-46
2024/03/06 03:31:18;;;;;;;6.47;3.40;;;6.50;92.00;;;8.32;60.81;97695.41;5013058;28;20490;-45
2024/03/06 03:33:46;;;;;;;5.87;2.90;;;6.50;91.50;;;8.28;60.80;97694.88;5017384;28;20054;-46
2024/03/06 03:36:13;;;;;;;4.90;3.33;;;6.50;91.20;;;8.32;60.81;97700.72;5030270;28;20047;-45
2024/03/06 03:38:41;;;;;;;5.70;3.07;;;6.50;91.70;;;8.33;60.59;97693.59;5027412;28;20067;-44
2024/03/06 03:41:16;;;;;;;5.40;2.60;;;6.50;91.60;;;8.32;60.57;97689.25;5012872;28;20081;-44
2024/03/06 03:43:45;;;;;;;4.20;2.80;;;6.50;91.20;;;8.31;60.58;97696.38;5014819;28;20417;-44
2024/03/06 03:46:13;;;;;;;4.70;3.17;;;6.50;92.00;;;8.26;60.50;97696.00;5028886;28;20495;-45
2024/03/06 03:48:41;;;;;;;3.90;2.90;;;6.40;91.30;;;8.21;61.07;97693.75;5029409;28;20048;-45
2024/03/06 03:51:09;;;;;;;5.73;3.10;;;6.40;92.20;;;8.25;60.83;97694.31;5004976;28;20042;-44
2024/03/06 03:53:36;;;;;;;4.97;3.27;;;6.50;92.50;;;8.26;60.81;97702.13;5012638;28;20043;-44
2024/03/06 03:56:04;;;;;;;4.43;2.83;;;6.50;91.90;;;8.29;60.80;97701.00;5028322;28;20451;-46
2024/03/06 03:58:32;;;;;;;5.50;3.20;;;6.60;91.70;;;8.32;60.69;97706.03;5029541;28;20044;-45
2024/03/06 04:01:00;;;;;;;3.53;2.93;;;6.60;91.70;;;8.28;60.83;97709.94;5017371;28;20051;-46
2024/03/06 04:03:28;;;;;;;3.83;2.67;;;6.50;91.90;;;8.24;61.01;97709.41;5012804;28;20062;-44
2024/03/06 04:05:56;;;;;;;5.83;3.40;;;6.40;92.10;;;8.25;61.08;97711.06;5021576;28;20050;-44
2024/03/06 04:08:23;;;;;;;4.30;3.37;;;6.50;92.90;;;8.26;60.89;97715.41;5028009;28;20049;-44
2024/03/06 04:10:51;;;;;;;8.40;3.10;;;6.50;91.90;;;8.25;60.71;97713.72;5023018;28;20638;-44
2024/03/06 04:13:20;;;;;;;3.50;2.33;;;6.40;92.60;;;8.20;60.83;97715.13;5010688;28;20504;-45
2024/03/06 04:15:48;;;;;;;6.77;3.07;;;6.40;92.60;;;8.11;61.16;97723.97;5013826;28;20046;-44
2024/03/06 04:18:15;;;;;;;4.77;2.83;;;6.30;93.70;;;8.13;61.24;97722.84;5029763;28;20435;-44
2024/03/06 04:20:44;;;;;;;5.60;3.27;;;6.30;93.80;;;8.07;61.40;97720.75;5029250;28;20033;-44
2024/03/06 04:23:11;;;;;;;5.60;2.80;;;6.20;93.60;;;8.05;61.35;97718.25;5004489;28;20062;-44
2024/03/06 04:25:40;;;;;;;5.13;2.90;;;6.20;94.40;;;8.06;61.47;97716.41;5012362;28;20047;-44
2024/03/06 04:28:08;;;;;;;5.67;3.37;;;6.20;94.80;;;8.08;61.69;97719.75;5028232;28;20044;-44
2024/03/06 04:30:36;;;;;;;4.30;3.07;;;6.30;94.60;;;8.07;61.53;97718.94;5029089;28;20044;-45
2024/03/06 04:33:04;;;;;;;6.23;2.90;;;6.30;94.90;;;8.13;61.42;97719.34;5016395;28;20052;-43
2024/03/06 04:35:32;;;;;;;5.33;3.30;;;6.40;94.20;;;8.10;61.59;97731.06;5011999;28;20072;-44
2024/03/06 04:38:03;;;;;;;5.20;3.10;;;6.30;94.00;;;8.07;61.65;97734.84;5021385;28;20722;-44
2024/03/06 04:40:31;;;;;;;6.53;3.30;;;6.30;94.30;;;8.04;61.70;97731.63;5039604;28;20054;-44
2024/03/06 04:43:02;;;;;;;4.00;2.97;;;6.20;94.70;;;7.99;62.23;97732.09;5020687;28;20054;-44
2024/03/06 04:45:30;;;;;;;5.63;3.13;;;6.20;94.90;;;8.03;61.93;97732.63;5029046;28;20411;-44
2024/03/06 04:47:58;;;;;;;5.03;3.50;;;6.20;96.00;;;8.04;61.68;97734.28;5021082;28;20049;-44
2024/03/06 04:50:27;;;;;;;4.87;4.00;;;6.30;95.60;;;8.11;61.75;97743.34;5010777;28;20050;-44
2024/03/06 04:52:56;;;;;;;5.20;3.30;;;6.30;94.90;;;8.10;61.87;97744.31;5015783;28;20411;-45
2024/03/06 04:55:24;;;;;;;4.63;2.83;;;6.30;95.10;;;8.11;61.68;97743.34;5028969;28;20427;-44
2024/03/06 04:57:53;;;;;;;6.23;3.40;;;6.30;94.80;;;8.06;61.74;97745.59;5025470;28;20051;-44
2024/03/06 05:00:21;;;;;;;5.17;3.50;;;6.20;95.10;;;8.01;61.83;97751.34;5011111;28;20039;-44
2024/03/06 05:02:49;;;;;;;6.30;3.43;;;6.20;94.70;;;7.98;62.22;97751.59;5010497;28;20046;-44
2024/03/06 05:05:34;;;;;;;6.73;3.63;;;6.20;96.10;;;8.01;62.02;97755.81;5027388;28;20033;-44
2024/03/06 05:08:19;;;;;;;6.40;2.93;;;6.20;95.50;;;7.97;62.13;97757.03;5004183;28;20038;-44
2024/03/06 05:11:04;;;;;;;5.87;3.60;;;6.20;95.70;;;7.94;62.23;97760.81;5020859;28;20049;-44
2024/03/06 05:13:49;;;;;;;5.60;3.40;;;6.20;96.30;;;7.95;62.18;97761.66;5028372;28;20448;-44
2024/03/06 05:16:34;;;;;;;7.73;3.40;;;6.20;96.30;;;7.97;62.50;97775.59;5011602;28;20051;-44
2024/03/06 05:19:20;;;;;;;4.30;3.00;;;6.20;96.00;;;7.89;62.46;97773.69;5004553;28;20058;-43
2024/03/06 05:22:05;;;;;;;5.93;3.53;;;6.20;95.80;;;7.87;62.43;97778.25;5021776;28;20404;-44
2024/03/06 05:24:50;;;;;;;5.67;3.77;;;6.10;96.70;;;7.80;62.81;97774.53;5028499;28;20044;-44
2024/03/06 05:27:35;;;;;;;9.90;5.00;;;6.10;97.30;;;7.74;63.13;97777.75;5011353;28;20030;-42
2024/03/06 05:30:20;;;;;;;4.97;3.50;;;6.10;97.50;;;7.71;62.99;97781.47;5002685;28;20041;-42
2024/03/06 05:33:05;;;;;;;6.40;3.57;;;6.10;97.70;;;7.62;63.72;97783.16;5009971;28;20159;-42
2024/03/06 05:35:50;;;;;;;5.33;4.40;;;6.00;98.10;;;7.67;63.57;97785.38;5010859;28;20085;-42
2024/03/06 05:38:35;;;;;;;6.63;3.70;;;6.00;98.00;;;7.62;63.47;97783.16;5010970;28;20039;-42
2024/03/06 05:41:20;;;;;;;6.77;3.67;;;6.00;98.70;;;7.55;63.90;97786.50;5002280;28;20049;-42
2024/03/06 05:44:06;;;;;;;4.40;3.33;;;6.00;98.50;;;7.55;64.16;97792.63;5020875;28;20050;-42
2024/03/06 05:46:52;;;;;;;9.20;3.77;;;6.00;99.50;;;7.65;64.07;97788.16;5028506;28;20399;-42
2024/03/06 05:49:37;;;;;;;5.23;3.60;;;6.10;99.10;;;7.72;63.91;97796.41;5037030;28;20052;-42
2024/03/06 05:52:22;;;;;;;7.67;4.87;;;6.10;98.20;;;7.73;63.58;97798.06;4974405;28;20044;-42
2024/03/06 05:55:07;;;;;;;5.40;3.43;;;6.10;98.20;;;7.77;63.88;97802.13;5028156;28;20051;-43
2024/03/06 05:57:52;;;;;;;6.60;3.83;;;6.10;98.80;;;7.71;63.80;97794.72;5028645;28;20044;-42
2024/03/06 06:00:35;;;;;;;5.80;3.80;;;6.10;97.80;;;7.72;63.61;97808.84;5005523;28;20045;-42
2024/03/06 06:03:03;;;;;;;5.93;3.77;;;6.10;98.00;;;7.66;64.23;97807.59;5021008;28;20049;-42
2024/03/06 06:05:31;;;;;;;6.73;4.03;;;6.00;98.90;;;7.63;64.21;97807.84;5031952;28;20040;-42
2024/03/06 06:07:59;;;;;;;6.60;4.57;;;6.00;99.20;;;7.63;64.23;97821.09;5026779;28;20114;-43
2024/03/06 06:10:27;;;;;;;6.00;4.43;;;6.00;98.90;;;7.74;63.87;97822.78;4994284;28;20051;-42
2024/03/06 06:12:56;;;;;;;7.47;3.83;;;6.10;98.20;;;7.64;64.14;97818.31;5029829;28;20056;-42
2024/03/06 06:15:23;;;;;;;5.00;3.80;;;6.10;98.30;;;7.75;64.09;97813.84;5012844;28;20046;-42
2024/03/06 06:17:51;;;;;;;5.00;3.73;;;6.10;98.60;;;7.75;64.09;97819.97;5012716;28;20051;-42
2024/03/06 06:20:19;;;;;;;5.53;4.03;;;6.10;97.90;;;7.76;64.01;97820.84;5029054;28;20048;-42
2024/03/06 06:22:47;;;;;;;9.53;3.90;;;6.10;99.10;;;7.78;64.20;97832.97;5031795;28;20049;-42
2024/03/06 06:25:16;;;;;;;6.73;3.53;;;6.10;99.30;;;7.75;64.16;97837.69;5018130;28;20052;-42
2024/03/06 06:27:44;;;;;;;6.07;3.80;;;6.10;98.90;;;7.76;64.11;97834.09;5014154;28;20517;-42
2024/03/06 06:30:12;;;;;;;7.87;4.63;;;6.10;98.90;;;7.73;64.19;97843.13;5013823;28;20060;-42
2024/03/06 06:32:41;;;;;;;7.07;3.70;;;6.10;99.60;;;7.77;64.48;97846.34;5014055;28;20058;-42
2024/03/06 06:35:13;;;;;;;6.87;4.27;;;6.10;99.90;;;7.79;64.28;97841.75;5023010;28;20046;-42
2024/03/06 06:37:41;;;;;;;6.10;3.53;;;6.10;99.50;;;7.77;64.45;97841.03;5031876;28;20041;-41
2024/03/06 06:40:09;;;;;;;6.87;3.77;;;6.10;99.90;;;7.83;64.28;97853.75;5021422;28;20051;-42
2024/03/06 06:42:38;;;;;;;5.10;3.87;;;6.20;99.60;;;7.80;64.25;97856.69;5013826;28;20047;-43
2024/03/06 06:45:07;;;;;;;6.63;4.17;;;6.20;98.90;;;7.80;64.29;97856.69;5018222;28;20061;-41
2024/03/06 06:47:34;;;;;;;5.77;3.57;;;6.20;99.90;;;7.75;64.68;97859.72;5029474;28;20051;-41
2024/03/06 06:50:05;;;;;;;5.53;4.23;;;6.10;99.90;;;7.67;64.89;97862.25;5025632;28;20055;-41
2024/03/06 06:52:33;;;;;;;7.33;4.03;;;6.00;99.90;;;7.75;64.47;97856.25;5013673;28;20059;-40
2024/03/06 06:55:02;;;;;;;6.97;3.90;;;6.10;99.90;;;7.75;64.72;97862.38;5015796;28;20046;-40
2024/03/06 06:57:31;;;;;;;5.73;4.27;;;6.10;99.90;;;7.73;65.12;97863.50;5030797;28;20032;-40
2024/03/06 07:00:00;;;;;;;6.53;3.87;;;6.20;99.90;;;7.76;64.87;97869.38;5030508;28;20045;-40
2024/03/06 07:02:27;;;;;;;8.27;4.30;;;6.20;99.90;;;7.80;64.58;97867.28;5030809;28;20041;-42
2024/03/06 07:04:55;;;;;;;5.57;4.50;;;6.20;99.90;;;7.80;64.81;97872.59;5030782;28;20111;-43
2024/03/06 07:07:23;;;;;;;5.43;3.83;;;6.20;99.90;;;7.77;64.81;97870.19;5014264;28;20493;-40
2024/03/06 07:09:50;;;;;;;6.67;4.17;;;6.20;99.20;;;7.76;64.97;97873.84;5012340;28;20405;-40
2024/03/06 07:12:18;;;;;;;5.70;3.77;;;6.10;99.90;;;7.77;65.27;97868.38;5025576;28;20054;-40
2024/03/06 07:14:45;;;;;;;8.73;5.20;;;6.20;99.90;;;7.62;65.18;97878.56;5030656;28;20043;-41
2024/03/06 07:17:13;;;;;;;7.80;4.13;;;6.10;99.90;;;7.58;65.55;97874.50;5021722;28;20439;-41
2024/03/06 07:19:41;;;;;;;6.67;5.57;;;6.00;99.90;;;7.64;65.88;97873.13;5012765;28;20525;-42
2024/03/06 07:22:08;;;;;;;6.57;3.80;;;6.10;99.90;;;7.60;65.90;97880.50;5018394;28;20481;-41
2024/03/06 07:24:36;;;;;;;5.50;3.80;;;6.10;99.90;;;7.64;65.92;97878.44;5030554;28;20415;-41
2024/03/06 07:27:07;;;;;;;5.40;4.17;;;6.10;99.90;;;7.72;65.70;97885.69;5027797;28;20044;-42
2024/03/06 07:29:36;;;;;;;5.60;3.73;;;6.20;99.90;;;7.75;65.61;97885.41;5012590;28;20054;-41
2024/03/06 07:32:06;;;;;;;5.47;4.03;;;6.20;99.90;;;7.68;65.60;97885.97;5013617;28;20050;-42
2024/03/06 07:34:34;;;;;;;6.47;3.80;;;6.10;99.90;;;7.77;65.49;97888.75;5030568;28;20088;-41
2024/03/06 07:37:02;;;;;;;7.10;3.93;;;6.20;99.90;;;7.73;65.61;97887.34;5030254;28;20526;-41
2024/03/06 07:39:32;;;;;;;4.73;3.57;;;6.10;99.90;;;7.68;65.54;97899.22;5005171;28;20043;-41
2024/03/06 07:42:00;;;;;;;8.77;4.30;;;6.10;99.90;;;7.71;65.65;97890.13;5047498;28;20045;-42
2024/03/06 07:44:28;;;;;;;11.73;6.23;;;6.10;99.90;;;7.75;65.68;97896.84;4972985;28;20042;-42
2024/03/06 07:46:55;;;;;;;5.53;4.23;;;6.10;99.90;;;7.79;65.71;97898.25;4990119;28;20061;-42
2024/03/06 07:49:23;;;;;;;5.80;3.10;;;6.10;99.90;;;7.73;66.13;97903.25;5026159;28;20066;-42
2024/03/06 07:51:51;;;;;;;5.47;3.53;;;6.20;99.90;;;7.72;65.77;97901.59;5030231;28;20492;-42
2024/03/06 07:54:18;;;;;;;5.63;4.50;;;6.10;99.90;;;7.74;66.16;97897.81;5020209;28;20499;-42
2024/03/06 07:56:48;;;;;;;6.87;3.77;;;6.10;99.90;;;7.82;66.10;97905.91;5012578;28;20054;-41
2024/03/06 07:59:17;;;;;;;5.30;3.50;;;6.20;99.90;;;7.86;65.79;97904.66;5010922;28;20039;-42
2024/03/06 08:01:45;;;;;;;6.67;4.00;;;6.20;99.90;;;7.75;66.26;97907.44;5012756;28;20047;-41
2024/03/06 08:04:13;;;;;;;5.67;3.50;;;6.20;99.90;;;7.70;66.65;97909.69;5017939;28;20054;-40
2024/03/06 08:06:41;;;;;;;6.67;4.50;;;6.20;99.90;;;7.69;66.69;97915.94;5025138;28;20040;-40
2024/03/06 08:09:09;;;;;;;6.40;3.83;;;6.10;99.90;;;7.74;66.32;97910.25;5027318;28;20434;-41
2024/03/06 08:11:44;;;;;;;7.43;4.80;;;6.20;99.90;;;7.74;66.85;97921.69;5012925;28;20047;-41
2024/03/06 08:14:14;;;;;;;7.70;3.90;;;6.20;99.90;;;7.72;67.04;97922.81;5014525;28;20054;-41
2024/03/06 08:16:42;;;;;;;6.83;4.73;;;6.20;99.90;;;7.81;66.92;97924.59;5029832;28;20044;-41
2024/03/06 08:19:09;;;;;;;5.80;4.23;;;6.20;99.90;;;7.91;66.75;97921.97;5027319;28;20527;-42
2024/03/06 08:21:38;;;;;;;6.83;3.57;;;6.30;99.90;;;7.97;66.77;97922.28;5012318;28;20443;-41
2024/03/06 08:24:05;;;;;;;6.27;4.90;;;6.40;99.90;;;7.98;66.67;97929.22;5011856;28;20050;-42
2024/03/06 08:26:33;;;;;;;5.23;4.00;;;6.40;99.90;;;8.05;66.51;97925.06;5010706;28;20051;-42
2024/03/06 08:29:01;;;;;;;7.83;4.20;;;6.50;99.90;;;8.14;66.44;97923.38;5011344;28;20047;-42
2024/03/06 08:31:30;;;;;;;6.60;4.20;;;6.60;99.90;;;8.26;66.31;97924.13;5026221;28;20512;-42
2024/03/06 08:33:58;;;;;;;8.40;3.77;;;6.70;99.90;;;8.32;65.88;97931.50;5029542;28;20040;-42
2024/03/06 08:36:26;;;;;;;7.87;4.10;;;6.80;99.90;;;8.18;66.39;97935.41;5017230;28;20052;-41
2024/03/06 08:38:54;;;;;;;6.43;3.90;;;6.70;99.90;;;8.17;66.25;97930.25;5011201;28;20046;-41
2024/03/06 08:41:21;;;;;;;6.27;3.70;;;6.60;99.90;;;8.11;66.15;97936.09;5020162;28;20395;-41
2024/03/06 08:43:49;;;;;;;5.90;5.00;;;6.50;99.90;;;8.06;66.65;97940.00;5029034;28;20045;-41
2024/03/06 08:46:17;;;;;;;6.77;4.53;;;6.40;99.90;;;7.96;66.55;97936.50;5023795;28;20044;-41
2024/03/06 08:48:46;;;;;;;7.37;5.03;;;6.40;99.90;;;7.96;66.64;97943.63;5009458;28;20727;-41
2024/03/06 08:51:14;;;;;;;4.80;3.40;;;6.40;99.90;;;7.96;66.92;97943.63;4983501;28;20429;-41
2024/03/06 08:53:41;;;;;;;7.83;4.33;;;6.40;99.90;;;8.04;66.67;97944.59;4967605;28;20074;-41
2024/03/06 08:56:09;;;;;;;6.43;4.83;;;6.40;99.90;;;8.10;66.63;97948.50;4968733;28;20525;-41
2024/03/06 08:58:37;;;;;;;5.70;4.23;;;6.50;99.90;;;8.10;66.74;97948.50;4971121;28;20039;-41
2024/03/06 09:01:05;;;;;;;7.73;4.83;;;6.50;99.90;;;8.16;66.71;97949.78;4969592;28;20043;-41
2024/03/06 09:03:33;;;;;;;7.40;4.43;;;6.50;99.90;;;8.21;66.63;97944.91;4965314;28;20413;-41
2024/03/06 09:06:00;;;;;;;7.20;4.23;;;6.60;99.90;;;8.21;66.64;97953.69;4969042;28;20047;-41
2024/03/06 09:08:28;;;;;;;5.63;4.00;;;6.60;99.90;;;8.15;66.81;97943.63;4969411;28;20039;-41
2024/03/06 09:10:58;;;;;;;7.13;4.87;;;6.60;99.90;;;8.02;66.97;97954.50;4969739;28;20043;-41
2024/03/06 09:13:26;;;;;;;5.97;4.50;;;6.40;99.90;;;8.10;66.72;97959.13;4962704;28;20127;-41
2024/03/06 09:15:54;;;;;;;8.67;4.43;;;6.50;99.90;;;8.02;67.23;97956.31;4965078;28;20050;-41
2024/03/06 09:18:21;;;;;;;8.23;5.93;;;6.50;99.90;;;8.00;67.18;97958.28;4967962;28;20075;-41
2024/03/06 09:20:49;;;;;;;9.07;5.80;;;6.50;99.90;;;7.82;67.73;97964.25;4965505;28;20055;-41
2024/03/06 09:23:17;;;;;;;6.23;5.03;;;6.30;99.90;;;7.89;67.61;97965.38;4965593;28;20039;-42
2024/03/06 09:25:45;;;;;;;7.33;5.13;;;6.40;99.90;;;8.03;67.38;97966.78;4963230;28;20047;-42
2024/03/06 09:28:13;;;;;;;8.63;6.43;;;6.50;99.90;;;8.01;67.63;97966.09;4962337;28;20086;-42
2024/03/06 09:30:41;;;;;;;10.20;6.03;;;6.50;99.90;;;8.09;67.30;97962.75;4963285;28;20347;-42
2024/03/06 09:33:09;;;;;;;10.00;6.03;;;6.50;99.90;;;7.94;67.57;97972.91;4962926;28;20047;-42
2024/03/06 09:35:37;;;;;;;9.03;5.93;;;6.40;99.90;;;7.97;67.74;97966.47;4966091;28;20051;-42
2024/03/06 09:38:04;;;;;;;8.40;6.70;;;6.50;99.90;;;7.89;67.71;97977.81;4967634;28;20238;-44
2024/03/06 09:40:32;;;;;;;9.97;6.10;;;6.40;99.90;;;8.02;67.99;97974.88;4973199;28;20044;-45
2024/03/06 09:43:00;;;;;;;6.30;5.67;;;6.50;99.90;;;8.08;67.41;97972.53;4949617;28;20055;-44
2024/03/06 09:45:27;;;;;;;8.07;6.80;;;6.50;99.90;;;8.15;67.69;97978.09;4967887;28;20061;-45
2024/03/06 09:47:55;;;;;;;9.50;6.23;;;6.60;99.90;;;8.24;67.35;97974.63;4966024;28;20486;-44
2024/03/06 09:50:26;;;;;;;8.87;6.90;;;6.70;99.90;;;8.21;67.34;97971.41;4965662;28;20058;-46
2024/03/06 09:52:56;;;;;;;8.00;6.93;;;6.70;99.90;;;8.16;67.31;97971.84;4964266;28;20046;-45
2024/03/06 09:55:25;;;;;;;10.80;7.73;;;6.60;99.90;;;8.12;67.62;97975.72;4967034;28;20043;-45
2024/03/06 09:57:53;;;;;;;10.33;7.20;;;6.60;99.90;;;8.12;67.70;97973.06;4968575;28;20051;-45
2024/03/06 10:00:21;;;;;;;12.17;7.80;;;6.60;99.90;;;7.94;68.21;97982.69;4966468;28;20058;-44
2024/03/06 10:03:08;;;;;;;10.30;7.87;;;6.50;99.90;;;7.96;67.79;97984.22;4970306;28;20517;-45
2024/03/06 10:05:35;;;;;;;16.13;8.87;;;6.40;99.90;;;7.95;68.18;97979.03;4946670;28;20039;-44
2024/03/06 10:08:04;;;;;;;12.63;9.47;;;6.50;99.90;;;7.96;68.08;97986.03;4951930;28;20414;-45
2024/03/06 10:10:32;;;;;;;12.80;8.47;;;6.40;99.90;;;8.04;67.98;97981.72;4948154;28;20430;-44
2024/03/06 10:13:00;;;;;;;11.27;8.33;;;6.50;99.90;;;8.10;68.01;97988.28;4946787;28;20051;-44
2024/03/06 10:15:31;;;;;;;11.77;8.47;;;6.60;99.90;;;8.15;67.92;97975.47;4948224;28;20051;-45
2024/03/06 10:18:32;;;;;;;11.37;9.10;;;6.60;99.90;;;8.04;68.15;97989.66;4947802;28;20059;-45
2024/03/06 10:21:01;;;;;;;13.17;8.80;;;6.60;99.90;;;8.05;68.10;97980.75;4925774;28;20051;-43
2024/03/06 10:23:29;;;;;;;15.63;10.00;;;6.60;99.90;;;8.14;68.00;97981.72;4948004;28;20062;-45
2024/03/06 10:25:57;;;;;;;32.33;15.03;;;6.60;99.90;;;8.11;68.34;97979.38;4948518;28;20051;-43
2024/03/06 10:28:25;;;;;;;12.77;9.03;;;6.60;99.90;;;8.17;68.32;97975.31;4949620;28;20453;-44
2024/03/06 10:31:05;;;;;;;17.13;10.43;;;6.60;99.90;;;8.22;68.26;97973.06;4948357;28;20061;-43
2024/03/06 10:33:34;;;;;;;13.53;10.53;;;6.70;99.90;;;8.28;68.22;97976.03;4944230;28;20058;-44
2024/03/06 10:36:02;;;;;;;15.33;9.57;;;6.80;99.90;;;8.37;68.00;97981.47;4941038;28;20047;-45
2024/03/06 10:38:36;;;;;;;13.80;9.73;;;6.80;99.90;;;8.39;67.74;97983.00;4950664;28;20051;-44
2024/03/06 10:41:07;;;;;;;17.47;11.57;;;6.90;99.90;;;8.17;68.29;97980.63;4940950;28;20049;-43
2024/03/06 10:43:37;;;;;;;18.77;11.87;;;6.70;99.90;;;8.22;68.15;97983.69;4940438;28;20523;-43